Time;durP1;ratioP1;P1;durP2;ratioP2;P2;SDS_P1;SDS_P2;PMS_P1;PMS_P2;Temp;Humidity;BMP_temperature;BMP_pressure;BME280_temperature;BME280_humidity;BME280_pressure;Samples;Min_cycle;Max_cycle;Signal;HPM_P1;HPM_P2
2022/03/30 00:02:08;;;;;;;31.87;19.47;;;7.30;99.90;;;;;;5056162;28;20178;-61
2022/03/30 00:04:36;;;;;;;34.43;19.50;;;7.30;99.90;;;;;;5054871;28;20178;-60
2022/03/30 00:07:03;;;;;;;36.07;20.47;;;7.30;99.90;;;;;;5056016;28;20190;-60
2022/03/30 00:09:29;;;;;;;38.60;21.73;;;7.30;99.90;;;;;;5056331;28;20183;-60
2022/03/30 00:11:56;;;;;;;39.50;20.20;;;7.30;99.90;;;;;;5056179;28;20179;-60
2022/03/30 00:14:22;;;;;;;37.20;20.70;;;7.30;99.90;;;;;;5055637;28;20209;-60
2022/03/30 00:16:48;;;;;;;31.93;19.30;;;7.20;99.90;;;;;;5055873;28;20197;-60
2022/03/30 00:19:14;;;;;;;35.87;20.70;;;7.30;99.90;;;;;;5055920;28;20623;-60
2022/03/30 00:21:40;;;;;;;40.10;21.73;;;7.30;99.90;;;;;;5055827;28;20178;-61
2022/03/30 00:24:06;;;;;;;33.17;20.67;;;7.20;99.90;;;;;;5055741;28;20202;-60
2022/03/30 00:26:31;;;;;;;40.17;20.10;;;7.20;99.90;;;;;;5063772;28;20681;-60
2022/03/30 00:28:57;;;;;;;35.10;19.73;;;7.20;99.90;;;;;;5056375;28;20224;-61
2022/03/30 00:31:23;;;;;;;31.97;19.30;;;7.20;99.90;;;;;;5055433;28;20183;-61
2022/03/30 00:33:51;;;;;;;38.60;19.67;;;7.20;99.90;;;;;;5055677;28;20667;-60
2022/03/30 00:36:17;;;;;;;31.00;19.07;;;7.20;99.90;;;;;;5055625;28;20244;-60
2022/03/30 00:38:42;;;;;;;33.37;18.50;;;7.10;99.90;;;;;;5055685;28;20209;-61
2022/03/30 00:41:08;;;;;;;28.30;17.53;;;7.20;99.90;;;;;;5055678;28;20199;-60
2022/03/30 00:43:34;;;;;;;36.03;20.73;;;7.20;99.90;;;;;;5055766;28;20185;-61
2022/03/30 00:46:00;;;;;;;33.97;18.63;;;7.10;99.90;;;;;;5055176;28;20252;-60
2022/03/30 00:48:26;;;;;;;32.23;19.13;;;7.10;99.90;;;;;;5055342;28;20198;-61
2022/03/30 00:50:51;;;;;;;37.63;20.63;;;7.10;99.90;;;;;;5054598;28;20262;-61
2022/03/30 00:53:17;;;;;;;31.90;19.00;;;7.10;99.90;;;;;;5055170;28;20254;-61
2022/03/30 00:55:43;;;;;;;36.67;19.60;;;7.10;99.90;;;;;;5056133;28;20250;-61
2022/03/30 00:58:09;;;;;;;37.63;19.63;;;7.10;99.90;;;;;;5062517;28;20179;-61
2022/03/30 01:00:35;;;;;;;38.13;19.73;;;7.10;99.90;;;;;;5054951;28;20174;-61
2022/03/30 01:03:01;;;;;;;32.93;18.90;;;7.00;99.90;;;;;;5054924;28;20181;-61
2022/03/30 01:05:26;;;;;;;35.17;19.63;;;7.00;99.90;;;;;;5054904;28;20217;-61
2022/03/30 01:07:56;;;;;;;35.60;19.37;;;7.00;99.90;;;;;;5054851;28;20291;-61
2022/03/30 01:10:22;;;;;;;39.17;20.23;;;7.00;99.90;;;;;;5054742;28;20190;-61
2022/03/30 01:12:52;;;;;;;31.13;18.90;;;7.00;99.90;;;;;;5055091;28;20170;-61
2022/03/30 01:15:18;;;;;;;35.13;19.87;;;6.90;99.90;;;;;;5054494;28;20174;-61
2022/03/30 01:17:43;;;;;;;35.30;19.87;;;6.90;99.90;;;;;;5054615;28;20193;-61
2022/03/30 01:20:11;;;;;;;38.60;21.70;;;6.90;99.90;;;;;;5054722;28;20179;-61
2022/03/30 01:22:37;;;;;;;35.23;19.83;;;6.90;99.90;;;;;;5054596;28;20722;-61
2022/03/30 01:25:03;;;;;;;37.93;18.10;;;6.80;99.90;;;;;;5054564;28;20178;-62
2022/03/30 01:27:29;;;;;;;35.37;18.67;;;6.80;99.90;;;;;;5063048;28;20309;-63
2022/03/30 01:32:41;;;;;;;38.43;18.17;;;6.70;99.90;;;;;;5054913;28;20574;-61
2022/03/30 01:35:07;;;;;;;35.07;18.07;;;6.70;99.90;;;;;;5054695;28;20179;-64
2022/03/30 01:37:33;;;;;;;32.27;17.43;;;6.70;99.90;;;;;;5054277;28;20195;-61
2022/03/30 01:40:04;;;;;;;33.53;18.93;;;6.60;99.90;;;;;;5054274;28;20686;-61
2022/03/30 01:42:30;;;;;;;41.90;18.73;;;6.60;99.90;;;;;;5054533;28;20155;-61
2022/03/30 01:44:56;;;;;;;35.07;19.13;;;6.60;99.90;;;;;;5054072;28;20175;-61
2022/03/30 01:47:22;;;;;;;33.90;18.80;;;6.50;99.90;;;;;;5054134;28;20204;-61
2022/03/30 01:49:48;;;;;;;34.87;18.53;;;6.50;99.90;;;;;;5054167;28;20178;-60
2022/03/30 01:52:16;;;;;;;33.30;19.50;;;6.40;99.90;;;;;;5054123;28;20175;-63
2022/03/30 01:54:43;;;;;;;36.10;19.17;;;6.40;99.90;;;;;;5053994;28;20347;-64
2022/03/30 01:57:12;;;;;;;36.80;19.63;;;6.40;99.90;;;;;;5062590;28;20198;-63
2022/03/30 01:59:38;;;;;;;37.13;18.63;;;6.40;99.90;;;;;;5053757;28;20261;-61
2022/03/30 02:02:04;;;;;;;32.70;17.37;;;6.40;99.90;;;;;;5053975;28;20175;-61
2022/03/30 02:04:31;;;;;;;35.50;19.03;;;6.30;99.90;;;;;;5054198;28;20178;-63
2022/03/30 02:06:56;;;;;;;35.90;19.83;;;6.30;99.90;;;;;;5053893;28;20570;-62
2022/03/30 02:09:22;;;;;;;38.37;18.80;;;6.30;99.90;;;;;;5054035;28;20178;-61
2022/03/30 02:11:50;;;;;;;39.27;18.93;;;6.20;99.90;;;;;;5053858;28;20170;-61
2022/03/30 02:14:16;;;;;;;39.47;20.37;;;6.20;99.90;;;;;;5053955;28;20300;-61
2022/03/30 02:16:42;;;;;;;34.63;19.27;;;6.10;99.90;;;;;;5053397;28;20273;-63
2022/03/30 02:19:07;;;;;;;35.43;19.53;;;6.10;99.90;;;;;;5054258;28;20258;-62
2022/03/30 02:21:34;;;;;;;42.73;21.03;;;6.00;99.90;;;;;;5052430;28;20694;-62
2022/03/30 02:24:00;;;;;;;35.63;20.70;;;6.00;99.90;;;;;;5053871;28;20178;-62
2022/03/30 02:26:27;;;;;;;41.17;20.63;;;6.00;99.90;;;;;;5060659;28;20267;-63
2022/03/30 02:28:54;;;;;;;38.03;20.63;;;5.90;99.90;;;;;;5054814;28;20236;-62
2022/03/30 02:31:21;;;;;;;37.43;20.17;;;5.90;99.90;;;;;;5053154;28;20175;-61
2022/03/30 02:33:46;;;;;;;35.27;20.60;;;5.80;99.90;;;;;;5053360;28;20614;-62
2022/03/30 02:36:13;;;;;;;36.00;19.70;;;5.80;99.90;;;;;;5053254;28;20221;-62
2022/03/30 02:38:40;;;;;;;42.20;20.60;;;5.70;99.90;;;;;;5053468;28;20681;-62
2022/03/30 02:41:07;;;;;;;39.73;20.13;;;5.70;99.90;;;;;;5053596;28;20162;-62
2022/03/30 02:43:33;;;;;;;38.03;20.30;;;5.70;99.90;;;;;;5053585;28;20648;-61
2022/03/30 02:45:59;;;;;;;38.13;20.93;;;5.60;99.90;;;;;;5053090;28;20549;-64
2022/03/30 02:48:28;;;;;;;38.30;20.27;;;5.60;99.90;;;;;;5053538;28;20258;-63
2022/03/30 02:51:02;;;;;;;36.13;20.87;;;5.60;99.90;;;;;;5053245;28;20178;-63
2022/03/30 02:53:29;;;;;;;36.67;20.93;;;5.50;99.90;;;;;;5051956;28;20671;-64
2022/03/30 02:55:56;;;;;;;39.33;20.93;;;5.50;99.90;;;;;;5056115;28;20209;-62
2022/03/30 02:58:22;;;;;;;34.47;20.23;;;5.50;99.90;;;;;;5058970;28;20186;-62
2022/03/30 03:00:47;;;;;;;40.17;20.20;;;5.40;99.90;;;;;;5052929;28;20170;-63
2022/03/30 03:03:13;;;;;;;39.17;21.33;;;5.40;99.90;;;;;;5053137;28;20174;-62
2022/03/30 03:05:41;;;;;;;43.80;20.80;;;5.40;99.90;;;;;;5053020;28;20186;-62
2022/03/30 03:08:08;;;;;;;38.63;20.20;;;5.50;99.90;;;;;;5053013;28;20182;-62
2022/03/30 03:10:38;;;;;;;35.13;19.60;;;5.40;99.90;;;;;;5052934;28;20189;-62
2022/03/30 03:13:04;;;;;;;34.43;19.53;;;5.40;99.90;;;;;;5053374;28;20611;-62
2022/03/30 03:15:34;;;;;;;40.03;21.03;;;5.30;99.90;;;;;;5056858;28;20185;-62
2022/03/30 03:18:01;;;;;;;33.60;19.27;;;5.20;99.90;;;;;;5057270;28;20187;-61
2022/03/30 03:20:28;;;;;;;38.13;20.70;;;5.20;99.90;;;;;;5056995;28;20162;-62
2022/03/30 03:22:54;;;;;;;35.57;21.30;;;5.20;99.90;;;;;;5056961;28;20171;-62
2022/03/30 03:25:21;;;;;;;41.97;19.57;;;5.20;99.90;;;;;;5056897;28;20170;-61
2022/03/30 03:27:47;;;;;;;40.17;21.60;;;5.10;99.90;;;;;;5065388;28;20629;-62
2022/03/30 03:30:14;;;;;;;39.50;21.17;;;5.10;99.90;;;;;;5056526;28;20188;-62
2022/03/30 03:32:41;;;;;;;35.70;19.60;;;5.00;99.90;;;;;;5057087;28;20576;-62
2022/03/30 03:35:09;;;;;;;41.03;21.63;;;5.00;99.90;;;;;;5057148;28;20635;-62
2022/03/30 03:37:39;;;;;;;35.07;19.87;;;4.90;99.90;;;;;;5056916;28;20220;-62
2022/03/30 03:40:06;;;;;;;41.13;22.33;;;4.90;99.90;;;;;;5056781;28;20182;-62
2022/03/30 03:42:32;;;;;;;36.27;19.63;;;4.90;99.90;;;;;;5055205;28;20714;-62
2022/03/30 03:44:58;;;;;;;34.60;20.30;;;4.90;99.90;;;;;;5056238;28;20178;-62
2022/03/30 03:47:24;;;;;;;32.93;21.13;;;4.90;99.90;;;;;;5056423;28;20658;-62
2022/03/30 03:49:50;;;;;;;34.60;19.00;;;5.00;99.90;;;;;;5056497;28;20231;-62
2022/03/30 03:52:15;;;;;;;39.70;21.67;;;5.00;99.90;;;;;;5056374;28;20170;-62
2022/03/30 03:54:41;;;;;;;37.40;20.87;;;5.00;99.90;;;;;;5056368;28;20240;-63
2022/03/30 03:57:07;;;;;;;38.07;20.83;;;5.00;99.90;;;;;;5064947;28;20198;-62
2022/03/30 03:59:33;;;;;;;39.40;22.00;;;5.00;99.90;;;;;;5056585;28;20272;-62
2022/03/30 04:01:59;;;;;;;41.67;22.10;;;4.90;99.90;;;;;;5055961;28;20631;-62
2022/03/30 04:04:25;;;;;;;47.37;21.63;;;4.80;99.90;;;;;;5056120;28;20550;-62
2022/03/30 04:06:51;;;;;;;40.10;22.40;;;4.80;99.90;;;;;;5056033;28;20190;-62
2022/03/30 04:09:16;;;;;;;42.80;21.60;;;4.70;99.90;;;;;;5054687;28;20174;-63
2022/03/30 04:11:42;;;;;;;38.50;20.80;;;4.70;99.90;;;;;;5056211;28;20179;-62
2022/03/30 04:14:08;;;;;;;40.03;19.93;;;4.60;99.90;;;;;;5055960;28;20198;-63
2022/03/30 04:16:33;;;;;;;35.17;21.60;;;4.70;99.90;;;;;;5055698;28;20198;-62
2022/03/30 04:18:59;;;;;;;38.10;21.00;;;4.60;99.90;;;;;;5056138;28;20249;-62
2022/03/30 04:21:25;;;;;;;42.10;21.57;;;4.60;99.90;;;;;;5056110;28;20167;-62
2022/03/30 04:23:51;;;;;;;35.90;20.97;;;4.60;99.90;;;;;;5055766;28;20261;-63
2022/03/30 04:26:16;;;;;;;39.23;21.17;;;4.60;99.90;;;;;;5060051;28;20580;-62
2022/03/30 04:28:43;;;;;;;38.60;21.80;;;4.50;99.90;;;;;;5058443;28;20186;-63
2022/03/30 04:31:12;;;;;;;52.73;22.03;;;4.50;99.90;;;;;;5055393;28;20174;-62
2022/03/30 04:33:39;;;;;;;41.87;21.30;;;4.50;99.90;;;;;;5055413;28;20198;-62
2022/03/30 04:36:06;;;;;;;35.90;21.87;;;4.50;99.90;;;;;;5055706;28;20226;-62
2022/03/30 04:38:32;;;;;;;40.53;22.90;;;4.60;99.90;;;;;;5055388;28;20171;-62
2022/03/30 04:40:58;;;;;;;41.57;22.73;;;4.60;99.90;;;;;;5055406;28;20250;-61
2022/03/30 04:43:24;;;;;;;42.87;21.97;;;4.60;99.90;;;;;;5055316;28;20198;-62
2022/03/30 04:45:50;;;;;;;42.17;23.53;;;4.60;99.90;;;;;;5055021;28;20553;-62
2022/03/30 04:48:16;;;;;;;39.07;21.03;;;4.50;99.90;;;;;;5055535;28;20185;-62
2022/03/30 04:50:41;;;;;;;40.63;20.77;;;4.50;99.90;;;;;;5055600;28;20172;-62
2022/03/30 04:53:07;;;;;;;41.60;21.90;;;4.60;99.90;;;;;;5055157;28;20174;-62
2022/03/30 04:55:33;;;;;;;36.23;21.13;;;4.60;99.90;;;;;;5055588;28;20174;-62
2022/03/30 04:57:59;;;;;;;40.80;22.47;;;4.60;99.90;;;;;;5062790;28;20280;-62
2022/03/30 05:00:24;;;;;;;43.53;22.30;;;4.50;99.90;;;;;;5055505;28;20595;-62
2022/03/30 05:02:50;;;;;;;39.10;22.47;;;4.40;99.90;;;;;;5055123;28;20245;-62
2022/03/30 05:05:16;;;;;;;43.50;21.53;;;4.40;99.90;;;;;;5054973;28;20193;-62
2022/03/30 05:07:42;;;;;;;40.40;21.67;;;4.30;99.90;;;;;;5054877;28;20205;-62
2022/03/30 05:10:12;;;;;;;40.13;21.13;;;4.30;99.90;;;;;;5054773;28;20243;-62
2022/03/30 05:12:38;;;;;;;38.13;21.47;;;4.30;99.90;;;;;;5055466;28;20632;-62
2022/03/30 05:15:04;;;;;;;38.57;21.87;;;4.30;99.90;;;;;;5054535;28;20210;-62
2022/03/30 05:17:30;;;;;;;39.33;21.10;;;4.20;99.90;;;;;;5055192;28;20201;-62
2022/03/30 05:19:56;;;;;;;41.30;22.67;;;4.20;99.90;;;;;;5054692;28;20167;-61
2022/03/30 05:22:21;;;;;;;37.80;20.70;;;4.20;99.90;;;;;;5054697;28;20537;-62
2022/03/30 05:24:47;;;;;;;39.30;21.63;;;4.30;99.90;;;;;;5053342;28;20217;-62
2022/03/30 05:27:13;;;;;;;39.17;21.63;;;4.30;99.90;;;;;;5063277;28;20213;-62
2022/03/30 05:29:39;;;;;;;44.23;22.17;;;4.30;99.90;;;;;;5053308;28;20189;-62
2022/03/30 05:32:05;;;;;;;43.23;22.57;;;4.40;99.90;;;;;;5054233;28;20174;-62
2022/03/30 05:34:31;;;;;;;42.57;21.43;;;4.30;99.90;;;;;;5054405;28;20663;-62
2022/03/30 05:36:59;;;;;;;39.70;22.37;;;4.20;99.90;;;;;;5054186;28;20190;-62
2022/03/30 05:39:25;;;;;;;40.47;23.33;;;4.20;99.90;;;;;;5054607;28;20202;-62
2022/03/30 05:41:52;;;;;;;41.90;23.43;;;4.20;99.90;;;;;;5054358;28;20646;-62
2022/03/30 05:44:19;;;;;;;35.60;21.33;;;4.10;99.90;;;;;;5054176;28;20177;-61
2022/03/30 05:46:44;;;;;;;42.97;23.00;;;4.10;99.90;;;;;;5053912;28;20269;-62
2022/03/30 05:49:10;;;;;;;38.13;21.97;;;4.10;99.90;;;;;;5054216;28;20320;-62
2022/03/30 05:51:36;;;;;;;37.53;21.60;;;4.10;99.90;;;;;;5054266;28;20186;-62
2022/03/30 05:54:02;;;;;;;42.63;21.13;;;4.10;99.90;;;;;;5054240;28;20287;-62
2022/03/30 05:59:15;;;;;;;40.27;21.83;;;4.10;99.90;;;;;;5054610;28;20244;-62
2022/03/30 06:01:41;;;;;;;38.53;22.10;;;4.20;99.90;;;;;;5053908;28;20248;-62
2022/03/30 06:04:06;;;;;;;37.93;21.23;;;4.20;99.90;;;;;;5054511;28;20170;-62
2022/03/30 06:06:33;;;;;;;43.60;21.77;;;4.20;99.90;;;;;;5054173;28;20205;-62
2022/03/30 06:09:02;;;;;;;50.93;23.87;;;4.30;99.90;;;;;;5054110;28;20197;-63
2022/03/30 06:11:28;;;;;;;40.13;21.37;;;4.30;99.90;;;;;;5053583;28;20245;-62
2022/03/30 06:13:54;;;;;;;37.50;22.63;;;4.40;99.90;;;;;;5053905;28;20202;-62
2022/03/30 06:16:21;;;;;;;40.67;21.53;;;4.40;99.90;;;;;;5053351;28;20230;-62
2022/03/30 06:18:47;;;;;;;44.63;24.03;;;4.50;99.90;;;;;;5053664;28;20265;-62
2022/03/30 06:21:13;;;;;;;44.13;22.83;;;4.50;99.90;;;;;;5053597;28;20213;-62
2022/03/30 06:23:39;;;;;;;43.13;23.40;;;4.50;99.90;;;;;;5053607;28;20182;-63
2022/03/30 06:26:05;;;;;;;44.33;23.40;;;4.50;99.90;;;;;;5053161;28;20256;-62
2022/03/30 06:28:30;;;;;;;37.97;23.17;;;4.50;99.90;;;;;;5069175;28;20760;-61
2022/03/30 06:30:57;;;;;;;43.13;23.13;;;4.60;99.90;;;;;;5073244;28;20177;-62
2022/03/30 06:33:23;;;;;;;37.70;22.97;;;4.60;99.90;;;;;;5073668;28;20197;-62
2022/03/30 06:35:48;;;;;;;42.07;22.47;;;4.60;99.90;;;;;;5073644;28;20538;-61
2022/03/30 06:38:14;;;;;;;42.57;23.90;;;4.60;99.90;;;;;;5073331;28;20549;-62
2022/03/30 06:40:40;;;;;;;42.03;24.10;;;4.60;99.90;;;;;;5073340;28;20208;-61
2022/03/30 06:43:06;;;;;;;44.23;22.93;;;4.70;99.90;;;;;;5073650;28;20178;-62
2022/03/30 06:45:32;;;;;;;43.37;23.87;;;4.60;99.90;;;;;;5073078;28;20184;-62
2022/03/30 06:47:57;;;;;;;45.50;24.03;;;4.70;99.90;;;;;;5072663;28;20567;-62
2022/03/30 06:50:24;;;;;;;40.20;23.40;;;4.70;99.90;;;;;;5071916;28;20177;-63
2022/03/30 06:52:50;;;;;;;40.53;22.90;;;4.90;99.90;;;;;;5073297;28;20170;-62
2022/03/30 06:55:16;;;;;;;44.70;24.07;;;5.00;99.90;;;;;;5073506;28;20211;-62
2022/03/30 06:57:42;;;;;;;44.90;23.00;;;5.10;99.90;;;;;;5064307;28;20208;-62
2022/03/30 07:00:12;;;;;;;45.87;25.70;;;5.20;99.90;;;;;;5073198;28;20170;-62
2022/03/30 07:02:38;;;;;;;39.77;22.77;;;5.30;99.90;;;;;;5071667;28;20260;-62
2022/03/30 07:05:04;;;;;;;37.97;22.23;;;5.20;99.90;;;;;;5073191;28;20177;-62
2022/03/30 07:10:19;;;;;;;45.60;24.37;;;5.40;99.90;;;;;;5071882;28;20221;-62
2022/03/30 07:12:50;;;;;;;42.80;22.60;;;5.40;99.90;;;;;;5073063;28;20599;-63
2022/03/30 07:15:17;;;;;;;45.63;23.57;;;5.50;99.90;;;;;;5072950;28;20201;-62
2022/03/30 07:17:54;;;;;;;41.47;22.63;;;5.60;99.90;;;;;;5072683;28;20225;-63
2022/03/30 07:20:22;;;;;;;43.53;22.63;;;5.80;99.90;;;;;;5073044;28;20180;-62
2022/03/30 07:22:49;;;;;;;48.70;23.60;;;6.00;99.90;;;;;;5072992;28;20178;-62
2022/03/30 07:25:16;;;;;;;38.03;20.80;;;6.20;99.90;;;;;;5072942;28;20642;-62
2022/03/30 07:27:44;;;;;;;38.20;21.87;;;6.30;99.90;;;;;;5064052;28;20280;-62
2022/03/30 07:30:12;;;;;;;38.37;21.63;;;6.30;99.90;;;;;;5072842;28;20178;-62
2022/03/30 07:32:41;;;;;;;40.17;22.27;;;6.40;99.90;;;;;;5072591;28;20190;-62
2022/03/30 07:35:09;;;;;;;37.27;22.30;;;6.30;99.90;;;;;;5072778;28;20209;-63
2022/03/30 07:37:36;;;;;;;35.77;21.40;;;6.20;99.90;;;;;;5072812;28;20619;-62
2022/03/30 07:40:04;;;;;;;38.83;21.90;;;6.20;99.90;;;;;;5071814;28;20257;-62
2022/03/30 07:42:30;;;;;;;36.60;21.17;;;6.30;99.90;;;;;;5072935;28;20673;-62
2022/03/30 07:44:56;;;;;;;35.37;21.37;;;6.20;99.90;;;;;;5071661;28;20685;-62
2022/03/30 07:47:22;;;;;;;44.33;23.80;;;6.30;99.90;;;;;;5072529;28;20681;-63
2022/03/30 07:49:48;;;;;;;38.63;22.47;;;6.60;99.90;;;;;;5073259;28;20182;-63
2022/03/30 07:52:15;;;;;;;39.97;22.37;;;6.80;99.90;;;;;;5072751;28;20197;-62
2022/03/30 07:54:41;;;;;;;33.77;21.40;;;6.80;99.90;;;;;;5072845;28;20205;-62
2022/03/30 07:57:08;;;;;;;35.47;21.17;;;6.90;99.90;;;;;;5063751;28;20194;-63
2022/03/30 07:59:34;;;;;;;41.00;22.87;;;7.00;99.90;;;;;;5073364;28;20650;-62
2022/03/30 08:02:00;;;;;;;35.37;20.60;;;7.00;99.90;;;;;;5076074;28;20181;-62
2022/03/30 08:04:26;;;;;;;34.47;20.67;;;7.20;99.90;;;;;;5076359;28;20235;-62
2022/03/30 08:06:52;;;;;;;40.17;20.97;;;7.50;99.90;;;;;;5076170;28;20605;-62
2022/03/30 08:09:19;;;;;;;38.20;20.50;;;7.70;99.90;;;;;;5075918;28;20176;-63
2022/03/30 08:11:45;;;;;;;39.53;22.40;;;7.60;99.90;;;;;;5076348;28;20190;-63
2022/03/30 08:14:12;;;;;;;37.00;21.10;;;7.70;99.90;;;;;;5075979;28;20198;-63
2022/03/30 08:16:39;;;;;;;39.13;21.63;;;7.70;99.90;;;;;;5075657;28;20679;-62
2022/03/30 08:19:08;;;;;;;38.20;21.77;;;7.80;99.90;;;;;;5076429;28;20169;-63
2022/03/30 08:24:20;;;;;;;41.53;22.40;;;8.00;99.90;;;;;;5076357;28;20584;-63
2022/03/30 08:26:46;;;;;;;34.23;19.90;;;8.30;99.90;;;;;;5066915;28;20210;-62
2022/03/30 08:29:12;;;;;;;41.10;21.60;;;9.30;99.90;;;;;;5076265;28;20189;-62
2022/03/30 08:31:38;;;;;;;31.83;20.60;;;10.40;99.90;;;;;;5074220;28;20186;-63
2022/03/30 08:34:04;;;;;;;26.90;18.05;;;11.30;99.90;;;;;;5075589;28;20201;-62
2022/03/30 08:36:30;;;;;;;31.73;19.52;;;12.00;99.90;;;;;;5075473;28;20200;-62
2022/03/30 08:38:57;;;;;;;29.90;19.83;;;12.80;99.90;;;;;;5075519;28;20170;-63
2022/03/30 08:41:23;;;;;;;33.97;19.95;;;13.20;99.90;;;;;;5075504;28;20174;-63
2022/03/30 08:43:49;;;;;;;32.92;19.17;;;13.50;99.90;;;;;;5075532;28;20188;-64
2022/03/30 08:46:15;;;;;;;30.58;18.83;;;14.00;99.90;;;;;;5075270;28;20193;-64
2022/03/30 08:48:41;;;;;;;27.25;18.05;;;14.40;99.90;;;;;;5075759;28;20634;-66
2022/03/30 08:51:08;;;;;;;26.67;17.95;;;15.00;99.90;;;;;;5075422;28;20232;-64
2022/03/30 08:53:34;;;;;;;27.30;17.35;;;15.80;99.90;;;;;;5075255;28;20210;-64
2022/03/30 08:56:01;;;;;;;28.00;18.27;;;16.00;99.90;;;;;;5071684;28;20663;-63
2022/03/30 08:58:27;;;;;;;26.42;17.17;;;16.10;99.90;;;;;;5070201;28;20243;-63
2022/03/30 09:00:53;;;;;;;28.30;17.83;;;16.30;99.90;;;;;;5074955;28;20177;-63
2022/03/30 09:03:19;;;;;;;30.63;16.20;;;16.30;99.90;;;;;;5075047;28;20166;-63
2022/03/30 09:05:45;;;;;;;28.92;15.35;;;16.40;99.90;;;;;;5075478;28;20261;-63
2022/03/30 09:08:21;;;;;;;26.40;14.95;;;15.90;99.90;;;;;;5074998;28;20182;-62
2022/03/30 09:10:48;;;;;;;27.08;16.10;;;15.70;99.90;;;;;;5074525;28;20188;-63
2022/03/30 09:13:17;;;;;;;32.05;16.67;;;15.80;99.90;;;;;;5074698;28;20220;-62
2022/03/30 09:15:44;;;;;;;26.50;14.57;;;15.30;99.90;;;;;;5074438;28;20181;-63
2022/03/30 09:18:11;;;;;;;22.63;14.85;;;15.20;99.90;;;;;;5074763;28;20166;-63
2022/03/30 09:20:40;;;;;;;24.58;15.43;;;15.10;99.90;;;;;;5073446;28;20646;-63
2022/03/30 09:23:08;;;;;;;25.73;14.88;;;15.00;99.90;;;;;;5074952;28;20165;-62
2022/03/30 09:25:34;;;;;;;23.92;13.93;;;14.80;99.90;;;;;;5074799;28;20181;-62
2022/03/30 09:28:01;;;;;;;22.88;14.35;;;14.60;99.90;;;;;;5066129;28;20212;-63
2022/03/30 09:30:28;;;;;;;23.40;14.40;;;14.30;99.90;;;;;;5074781;28;20180;-63
2022/03/30 09:32:58;;;;;;;27.88;15.88;;;14.10;99.90;;;;;;5074255;28;20590;-63
2022/03/30 09:35:33;;;;;;;22.75;14.85;;;13.80;99.90;;;;;;5074338;28;20207;-62
2022/03/30 09:38:02;;;;;;;25.35;15.60;;;13.50;99.90;;;;;;5074323;28;20189;-63
2022/03/30 09:40:43;;;;;;;24.42;14.43;;;13.10;99.90;;;;;;5074353;28;20257;-63
2022/03/30 09:43:14;;;;;;;23.50;14.38;;;12.90;99.90;;;;;;5074337;28;20651;-63
2022/03/30 09:45:40;;;;;;;24.38;14.98;;;12.80;99.90;;;;;;5074464;28;20150;-63
2022/03/30 09:48:14;;;;;;;28.05;15.68;;;12.40;99.90;;;;;;5073896;28;20219;-63
2022/03/30 09:50:54;;;;;;;24.20;14.65;;;12.50;99.90;;;;;;5074455;28;20165;-64
2022/03/30 09:53:25;;;;;;;28.83;14.40;;;12.60;99.90;;;;;;5072778;28;20166;-63
2022/03/30 09:55:58;;;;;;;22.92;14.85;;;12.30;99.90;;;;;;5071981;28;20162;-64
2022/03/30 09:58:26;;;;;;;26.23;15.13;;;12.10;99.90;;;;;;5068639;28;20236;-63
2022/03/30 10:01:11;;;;;;;26.00;15.05;;;12.10;99.90;;;;;;5073726;28;20197;-62
2022/03/30 10:03:59;;;;;;;29.27;14.93;;;12.00;99.90;;;;;;5072588;28;20264;-64
2022/03/30 10:06:32;;;;;;;24.92;14.48;;;12.10;99.90;;;;;;5073717;28;20206;-63
2022/03/30 10:08:58;;;;;;;26.77;13.75;;;12.00;99.90;;;;;;5073818;28;20204;-63
2022/03/30 10:11:27;;;;;;;25.58;15.60;;;12.00;99.90;;;;;;5073741;28;20221;-63
2022/03/30 10:13:59;;;;;;;23.23;15.63;;;12.00;99.90;;;;;;5073752;28;20216;-63
2022/03/30 10:16:27;;;;;;;23.95;14.52;;;12.10;99.90;;;;;;5073718;28;20543;-63
2022/03/30 10:18:53;;;;;;;25.23;14.77;;;11.90;99.90;;;;;;5073726;28;20189;-63
2022/03/30 10:21:27;;;;;;;23.52;14.43;;;11.90;99.90;;;;;;5073918;28;20576;-63
2022/03/30 10:24:20;;;;;;;27.50;14.03;;;12.00;99.90;;;;;;5073641;28;20153;-63
2022/03/30 10:26:50;;;;;;;24.27;14.90;;;12.00;99.90;;;;;;5064644;28;20713;-63
2022/03/30 10:29:17;;;;;;;28.73;15.20;;;11.80;99.90;;;;;;5073914;28;20535;-63
2022/03/30 10:32:04;;;;;;;23.90;14.40;;;11.70;99.90;;;;;;5073269;28;20192;-63
2022/03/30 10:34:30;;;;;;;23.73;13.57;;;11.80;99.90;;;;;;5073468;28;20235;-64
2022/03/30 10:37:00;;;;;;;23.50;15.27;;;11.80;99.90;;;;;;5074683;28;20190;-64
2022/03/30 10:39:27;;;;;;;26.07;15.27;;;11.60;99.90;;;;;;5073511;28;20224;-64
2022/03/30 10:41:58;;;;;;;25.27;14.90;;;11.60;99.90;;;;;;5073997;28;20192;-64
2022/03/30 10:44:49;;;;;;;25.35;14.07;;;11.80;99.90;;;;;;5074182;28;20201;-64
2022/03/30 10:47:23;;;;;;;25.08;14.95;;;12.00;99.90;;;;;;5073529;28;20307;-63
2022/03/30 10:49:55;;;;;;;22.93;13.33;;;12.20;99.90;;;;;;5073785;28;20188;-63
2022/03/30 10:52:39;;;;;;;20.77;13.98;;;12.50;99.90;;;;;;5073349;28;20208;-63
2022/03/30 10:55:14;;;;;;;28.33;14.43;;;12.50;99.90;;;;;;5073305;28;20275;-64
2022/03/30 10:58:01;;;;;;;20.60;13.82;;;12.70;99.90;;;;;;5064403;28;20207;-63
2022/03/30 11:00:34;;;;;;;21.65;13.30;;;12.70;99.90;;;;;;5073843;28;20161;-63
2022/03/30 11:03:26;;;;;;;25.88;14.50;;;12.70;99.90;;;;;;5073000;28;20158;-64
2022/03/30 11:06:05;;;;;;;25.90;13.88;;;12.90;99.90;;;;;;5072854;28;20259;-63
2022/03/30 11:08:33;;;;;;;21.23;13.52;;;13.00;99.90;;;;;;5073702;28;20165;-64
2022/03/30 11:11:17;;;;;;;25.27;14.30;;;13.20;99.90;;;;;;5073117;28;20196;-63
2022/03/30 11:13:42;;;;;;;24.98;13.93;;;13.30;99.90;;;;;;5073402;28;20193;-63
2022/03/30 11:16:11;;;;;;;20.80;12.68;;;13.50;99.90;;;;;;5071404;28;20190;-62
2022/03/30 11:18:54;;;;;;;21.42;13.07;;;13.70;99.90;;;;;;5073281;28;20178;-63
2022/03/30 11:21:20;;;;;;;22.80;13.75;;;13.60;99.90;;;;;;5073084;28;20169;-63
2022/03/30 11:24:10;;;;;;;22.00;13.05;;;13.60;99.90;;;;;;5073033;28;20260;-63
2022/03/30 11:26:50;;;;;;;21.02;13.35;;;13.80;99.90;;;;;;5064740;28;20604;-63
2022/03/30 11:29:41;;;;;;;22.52;12.32;;;14.20;99.90;;;;;;5053003;28;20174;-63
2022/03/30 11:32:19;;;;;;;22.00;12.73;;;14.40;99.90;;;;;;5052683;28;20170;-63
2022/03/30 11:34:47;;;;;;;17.02;11.88;;;14.50;99.90;;;;;;5053907;28;20243;-63
2022/03/30 11:37:13;;;;;;;22.13;12.75;;;14.50;99.90;;;;;;5056746;28;20308;-63
2022/03/30 11:39:41;;;;;;;18.63;12.95;;;14.40;99.90;;;;;;5056674;28;20227;-64
2022/03/30 11:42:06;;;;;;;16.52;11.18;;;14.40;99.90;;;;;;5056586;28;20190;-63
2022/03/30 11:47:21;;;;;;;19.83;11.35;;;13.80;99.90;;;;;;5056424;28;20682;-64
2022/03/30 11:49:55;;;;;;;22.55;12.43;;;13.70;99.90;;;;;;5056439;28;20178;-63
2022/03/30 11:52:22;;;;;;;18.85;12.13;;;13.30;99.90;;;;;;5056722;28;20206;-63
2022/03/30 11:54:53;;;;;;;23.90;11.57;;;13.80;99.90;;;;;;5056664;28;20198;-64
2022/03/30 11:57:20;;;;;;;18.98;11.60;;;14.40;99.90;;;;;;5065440;28;20685;-63
2022/03/30 12:00:09;;;;;;;15.70;11.25;;;14.30;99.90;;;;;;5056569;28;20513;-63
2022/03/30 12:02:38;;;;;;;20.33;12.32;;;14.40;99.90;;;;;;5055015;28;20174;-63
2022/03/30 12:05:06;;;;;;;18.77;12.15;;;14.60;99.90;;;;;;5056596;28;20690;-64
2022/03/30 12:07:37;;;;;;;18.75;11.82;;;14.30;99.90;;;;;;5054829;28;20572;-63
2022/03/30 12:10:05;;;;;;;18.08;11.68;;;14.80;99.90;;;;;;5056319;28;20269;-64
2022/03/30 12:12:40;;;;;;;17.10;11.32;;;15.20;99.90;;;;;;5056084;28;20707;-63
2022/03/30 12:15:19;;;;;;;19.70;10.95;;;15.20;99.90;;;;;;5056294;28;20198;-64
2022/03/30 12:17:58;;;;;;;14.82;10.77;;;15.00;99.90;;;;;;5055973;28;20186;-64
2022/03/30 12:20:27;;;;;;;16.35;11.00;;;14.10;99.90;;;;;;5056203;28;20155;-64
2022/03/30 12:23:04;;;;;;;18.38;11.35;;;14.50;99.90;;;;;;5056013;28;20171;-64
2022/03/30 12:25:32;;;;;;;16.30;11.23;;;15.00;99.90;;;;;;5055878;28;20158;-63
2022/03/30 12:27:58;;;;;;;19.08;10.13;;;15.50;99.90;;;;;;5064379;28;20620;-64
2022/03/30 12:30:27;;;;;;;18.85;11.00;;;15.50;99.90;;;;;;5055836;28;20185;-64
2022/03/30 12:32:53;;;;;;;18.08;10.50;;;15.10;99.90;;;;;;5055691;28;20179;-64
2022/03/30 12:35:20;;;;;;;18.20;10.80;;;14.90;99.90;;;;;;5056330;28;20617;-64
2022/03/30 12:37:48;;;;;;;15.98;9.75;;;15.00;99.90;;;;;;5054430;28;20615;-64
2022/03/30 12:40:20;;;;;;;17.25;9.50;;;15.30;99.90;;;;;;5055682;28;20651;-64
2022/03/30 12:42:50;;;;;;;17.52;10.68;;;15.20;99.90;;;;;;5055852;28;20171;-64
2022/03/30 12:45:18;;;;;;;14.85;9.60;;;15.70;99.90;;;;;;5055495;28;20240;-66
2022/03/30 12:47:51;;;;;;;13.38;10.20;;;16.10;99.90;;;;;;5053027;28;20625;-63
2022/03/30 12:50:23;;;;;;;15.90;9.25;;;16.50;99.90;;;;;;5055669;28;20189;-64
2022/03/30 12:52:51;;;;;;;15.43;9.77;;;16.80;99.90;;;;;;5055439;28;20245;-64